SAV weather

Savannah Hilton Head International Airport
Savannah, Georgia, United States

Public forecast

Using degrees Fahrenheit for public forecast. Weather courtesy of forecast.io.

Current aviation weather report (METAR) for Savannah Hilton Head International Airport

Retrieved 2019/12/08 09:53 UTC (38 minutes ago):

KSAV 080953Z AUTO 03008KT 10SM CLR 09/07 A3032 RMK AO2 SLP265 T00890072

Aviation forecast (TAF) for Savannah Hilton Head International Airport

Retrieved 2019/12/08 06:25 UTC (4 hours ago):

TAF KSAV 080520Z 0806/0906 04008KT P6SM SCT035 FM081400 04008KT P6SM BKN045 FM090100 04005KT P6SM OVC035